Decoded Metar for CWZZ (SAGLEK (BAY) in NL, CANADA) (IATA:WZZ) | Meteo·Mobile Aviation Weather
aviador You're here:

CWZZ Decoded Metar

SAGLEK (BAY) in NL, CANADA
Report Time2020-02-18 22:00:00
UTC Time2020-02-18 23:04:33
Flight Rules lifr LIFR
Wind290° at 17 kt
Visibility0 m
Phenomena:N/A
Clouds:N/A
Expected CloudBase > 3,200 ft AGL from Temp-Dew spread
CeilingNone
Temp-19°C (ISA -31)
Dew Point-27°C (49% RH)
AAT-28.9°C
QNH1005 hPa
Density Alt-2,044 ft
Elevation1,585 ft
Report Wrong Elevation
Raw Report
CWZZ 182200Z AUTO 29017KT ////SM NCD M19/M27 A2967=

Extra information for CWZZ:More info

Metar Taf Metar & Taf Last 4 Metars F.Rules Stats Wind Profile Meteogram Temp Stats Airport Information Weather charts Add Link Nearby VenuesMetar ALERT Operation Metar Decoded Social comments